sensor_id;sensor_type;location;lat;lon;timestamp;temperature;humidity
66728;DHT22;53641;44.274;19.890;2023-09-19T00:00:46;23.40;99.90
66728;DHT22;53641;44.274;19.890;2023-09-19T00:03:15;23.50;99.90
66728;DHT22;53641;44.274;19.890;2023-09-19T00:05:41;23.20;99.90
66728;DHT22;53641;44.274;19.890;2023-09-19T00:08:10;22.10;99.90
66728;DHT22;53641;44.274;19.890;2023-09-19T00:10:39;23.00;99.90
66728;DHT22;53641;44.274;19.890;2023-09-19T00:13:06;23.50;99.90
66728;DHT22;53641;44.274;19.890;2023-09-19T00:15:37;23.60;99.90
66728;DHT22;53641;44.274;19.890;2023-09-19T00:18:04;23.50;99.90
66728;DHT22;53641;44.274;19.890;2023-09-19T00:20:36;24.10;99.90
66728;DHT22;53641;44.274;19.890;2023-09-19T00:23:02;23.70;99.90
66728;DHT22;53641;44.274;19.890;2023-09-19T00:25:34;23.20;99.90
66728;DHT22;53641;44.274;19.890;2023-09-19T00:28:01;23.40;99.90
66728;DHT22;53641;44.274;19.890;2023-09-19T00:30:27;24.10;99.90
66728;DHT22;53641;44.274;19.890;2023-09-19T00:32:53;24.40;99.90
66728;DHT22;53641;44.274;19.890;2023-09-19T00:35:20;24.30;99.90
66728;DHT22;53641;44.274;19.890;2023-09-19T00:37:47;22.60;99.90
66728;DHT22;53641;44.274;19.890;2023-09-19T00:40:13;23.70;99.90
66728;DHT22;53641;44.274;19.890;2023-09-19T00:42:41;23.80;99.90
66728;DHT22;53641;44.274;19.890;2023-09-19T00:45:08;23.50;99.90
66728;DHT22;53641;44.274;19.890;2023-09-19T00:47:48;23.60;99.90
66728;DHT22;53641;44.274;19.890;2023-09-19T00:50:17;23.10;99.90
66728;DHT22;53641;44.274;19.890;2023-09-19T00:52:44;22.60;99.90
66728;DHT22;53641;44.274;19.890;2023-09-19T00:55:12;23.10;99.90
66728;DHT22;53641;44.274;19.890;2023-09-19T00:57:39;24.20;99.90
66728;DHT22;53641;44.274;19.890;2023-09-19T01:00:09;23.10;99.90
66728;DHT22;53641;44.274;19.890;2023-09-19T01:02:44;23.60;99.90
66728;DHT22;53641;44.274;19.890;2023-09-19T01:05:11;23.10;99.90
66728;DHT22;53641;44.274;19.890;2023-09-19T01:07:38;23.20;99.90
66728;DHT22;53641;44.274;19.890;2023-09-19T01:10:12;22.40;99.90
66728;DHT22;53641;44.274;19.890;2023-09-19T01:13:49;22.60;99.90
66728;DHT22;53641;44.274;19.890;2023-09-19T01:15:55;23.10;99.90
66728;DHT22;53641;44.274;19.890;2023-09-19T01:18:46;22.60;99.90
66728;DHT22;53641;44.274;19.890;2023-09-19T01:21:21;23.00;99.90
66728;DHT22;53641;44.274;19.890;2023-09-19T01:24:22;22.80;99.90
66728;DHT22;53641;44.274;19.890;2023-09-19T01:27:02;23.10;99.90
66728;DHT22;53641;44.274;19.890;2023-09-19T01:29:42;22.60;99.90
66728;DHT22;53641;44.274;19.890;2023-09-19T01:32:10;22.10;99.90
66728;DHT22;53641;44.274;19.890;2023-09-19T01:34:50;22.00;99.90
66728;DHT22;53641;44.274;19.890;2023-09-19T01:37:17;23.10;99.90
66728;DHT22;53641;44.274;19.890;2023-09-19T01:39:51;21.80;99.90
66728;DHT22;53641;44.274;19.890;2023-09-19T01:42:35;22.20;99.90
66728;DHT22;53641;44.274;19.890;2023-09-19T01:45:46;22.50;99.90
66728;DHT22;53641;44.274;19.890;2023-09-19T01:49:13;23.30;99.90
66728;DHT22;53641;44.274;19.890;2023-09-19T01:51:03;22.80;99.90
66728;DHT22;53641;44.274;19.890;2023-09-19T01:53:36;22.70;99.90
66728;DHT22;53641;44.274;19.890;2023-09-19T01:56:05;22.20;99.90
66728;DHT22;53641;44.274;19.890;2023-09-19T01:58:47;22.70;99.90
66728;DHT22;53641;44.274;19.890;2023-09-19T02:01:17;23.00;99.90
66728;DHT22;53641;44.274;19.890;2023-09-19T02:03:47;22.80;99.90
66728;DHT22;53641;44.274;19.890;2023-09-19T02:06:17;23.20;99.90
66728;DHT22;53641;44.274;19.890;2023-09-19T02:08:43;22.60;99.90
66728;DHT22;53641;44.274;19.890;2023-09-19T02:11:11;22.30;99.90
66728;DHT22;53641;44.274;19.890;2023-09-19T02:13:37;23.10;99.90
66728;DHT22;53641;44.274;19.890;2023-09-19T02:16:03;23.30;99.90
66728;DHT22;53641;44.274;19.890;2023-09-19T02:18:32;22.90;99.90
66728;DHT22;53641;44.274;19.890;2023-09-19T02:21:01;22.20;99.90
66728;DHT22;53641;44.274;19.890;2023-09-19T02:23:27;22.90;99.90
66728;DHT22;53641;44.274;19.890;2023-09-19T02:25:53;23.20;99.90
66728;DHT22;53641;44.274;19.890;2023-09-19T02:28:20;22.90;99.90
66728;DHT22;53641;44.274;19.890;2023-09-19T02:30:49;22.80;99.90
66728;DHT22;53641;44.274;19.890;2023-09-19T02:33:16;22.40;99.90
66728;DHT22;53641;44.274;19.890;2023-09-19T02:35:43;22.40;99.90
66728;DHT22;53641;44.274;19.890;2023-09-19T02:38:09;22.50;99.90
66728;DHT22;53641;44.274;19.890;2023-09-19T02:40:37;23.40;99.90
66728;DHT22;53641;44.274;19.890;2023-09-19T02:43:03;22.50;99.90
66728;DHT22;53641;44.274;19.890;2023-09-19T02:45:30;23.10;99.90
66728;DHT22;53641;44.274;19.890;2023-09-19T02:47:57;23.00;99.90
66728;DHT22;53641;44.274;19.890;2023-09-19T02:50:23;22.90;99.90
66728;DHT22;53641;44.274;19.890;2023-09-19T02:52:49;23.10;99.90
66728;DHT22;53641;44.274;19.890;2023-09-19T02:55:17;23.20;99.90
66728;DHT22;53641;44.274;19.890;2023-09-19T02:57:53;23.20;99.90
66728;DHT22;53641;44.274;19.890;2023-09-19T03:00:20;22.00;99.90
66728;DHT22;53641;44.274;19.890;2023-09-19T03:02:48;22.80;99.90
66728;DHT22;53641;44.274;19.890;2023-09-19T03:05:14;22.20;99.90
66728;DHT22;53641;44.274;19.890;2023-09-19T03:07:40;22.30;99.90
66728;DHT22;53641;44.274;19.890;2023-09-19T03:10:09;23.10;99.90
66728;DHT22;53641;44.274;19.890;2023-09-19T03:12:35;22.80;99.90
66728;DHT22;53641;44.274;19.890;2023-09-19T03:15:08;22.90;99.90
66728;DHT22;53641;44.274;19.890;2023-09-19T03:17:37;22.90;99.90
66728;DHT22;53641;44.274;19.890;2023-09-19T03:20:03;22.90;99.90
66728;DHT22;53641;44.274;19.890;2023-09-19T03:22:33;22.70;99.90
66728;DHT22;53641;44.274;19.890;2023-09-19T03:25:02;22.20;99.90
66728;DHT22;53641;44.274;19.890;2023-09-19T03:27:29;22.30;99.90
66728;DHT22;53641;44.274;19.890;2023-09-19T03:29:55;23.40;99.90
66728;DHT22;53641;44.274;19.890;2023-09-19T03:32:21;22.50;99.90
66728;DHT22;53641;44.274;19.890;2023-09-19T03:34:47;22.60;99.90
66728;DHT22;53641;44.274;19.890;2023-09-19T03:37:14;22.10;99.90
66728;DHT22;53641;44.274;19.890;2023-09-19T03:39:40;22.80;99.90
66728;DHT22;53641;44.274;19.890;2023-09-19T03:42:06;22.60;99.90
66728;DHT22;53641;44.274;19.890;2023-09-19T03:44:33;23.00;99.90
66728;DHT22;53641;44.274;19.890;2023-09-19T03:46:58;21.40;99.90
66728;DHT22;53641;44.274;19.890;2023-09-19T03:49:24;23.40;99.90
66728;DHT22;53641;44.274;19.890;2023-09-19T03:51:50;23.00;99.90
66728;DHT22;53641;44.274;19.890;2023-09-19T03:54:17;22.20;99.90
66728;DHT22;53641;44.274;19.890;2023-09-19T03:56:44;22.40;99.90
66728;DHT22;53641;44.274;19.890;2023-09-19T03:59:11;22.20;99.90
66728;DHT22;53641;44.274;19.890;2023-09-19T04:01:37;22.70;99.90
66728;DHT22;53641;44.274;19.890;2023-09-19T04:04:03;22.40;99.90
66728;DHT22;53641;44.274;19.890;2023-09-19T04:06:36;22.90;99.90
66728;DHT22;53641;44.274;19.890;2023-09-19T04:09:03;22.80;99.90
66728;DHT22;53641;44.274;19.890;2023-09-19T04:11:29;22.20;99.90
66728;DHT22;53641;44.274;19.890;2023-09-19T04:13:56;22.30;99.90
66728;DHT22;53641;44.274;19.890;2023-09-19T04:16:22;21.90;99.90
66728;DHT22;53641;44.274;19.890;2023-09-19T04:18:48;23.10;99.90
66728;DHT22;53641;44.274;19.890;2023-09-19T04:21:14;21.20;99.90
66728;DHT22;53641;44.274;19.890;2023-09-19T04:23:40;21.40;99.90
66728;DHT22;53641;44.274;19.890;2023-09-19T04:26:06;22.40;99.90
66728;DHT22;53641;44.274;19.890;2023-09-19T04:28:32;22.60;99.90
66728;DHT22;53641;44.274;19.890;2023-09-19T04:30:59;22.60;99.90
66728;DHT22;53641;44.274;19.890;2023-09-19T04:33:26;22.20;99.90
66728;DHT22;53641;44.274;19.890;2023-09-19T04:35:52;22.70;99.90
66728;DHT22;53641;44.274;19.890;2023-09-19T04:38:19;22.40;99.90
66728;DHT22;53641;44.274;19.890;2023-09-19T04:40:45;22.60;99.90
66728;DHT22;53641;44.274;19.890;2023-09-19T04:43:11;22.60;99.90
66728;DHT22;53641;44.274;19.890;2023-09-19T04:45:38;21.90;99.90
66728;DHT22;53641;44.274;19.890;2023-09-19T04:48:05;22.30;99.90
66728;DHT22;53641;44.274;19.890;2023-09-19T04:50:32;21.30;99.90
66728;DHT22;53641;44.274;19.890;2023-09-19T04:53:00;22.00;99.90
66728;DHT22;53641;44.274;19.890;2023-09-19T04:55:26;22.50;99.90
66728;DHT22;53641;44.274;19.890;2023-09-19T04:57:53;21.10;99.90
66728;DHT22;53641;44.274;19.890;2023-09-19T05:00:23;21.10;99.90
66728;DHT22;53641;44.274;19.890;2023-09-19T05:02:50;21.70;99.90
66728;DHT22;53641;44.274;19.890;2023-09-19T05:05:17;22.70;99.90
66728;DHT22;53641;44.274;19.890;2023-09-19T05:07:43;21.80;99.90
66728;DHT22;53641;44.274;19.890;2023-09-19T05:10:13;22.40;99.90
66728;DHT22;53641;44.274;19.890;2023-09-19T05:12:40;21.40;99.90
66728;DHT22;53641;44.274;19.890;2023-09-19T05:15:11;21.90;99.90
66728;DHT22;53641;44.274;19.890;2023-09-19T05:17:37;22.60;99.90
66728;DHT22;53641;44.274;19.890;2023-09-19T05:20:05;22.70;99.90
66728;DHT22;53641;44.274;19.890;2023-09-19T05:22:41;23.30;99.90
66728;DHT22;53641;44.274;19.890;2023-09-19T05:25:09;22.40;99.90
66728;DHT22;53641;44.274;19.890;2023-09-19T05:27:36;23.10;99.90
66728;DHT22;53641;44.274;19.890;2023-09-19T05:30:02;21.80;99.90
66728;DHT22;53641;44.274;19.890;2023-09-19T05:32:28;22.80;99.90
66728;DHT22;53641;44.274;19.890;2023-09-19T05:34:54;21.70;99.90
66728;DHT22;53641;44.274;19.890;2023-09-19T05:37:21;22.60;99.90
66728;DHT22;53641;44.274;19.890;2023-09-19T05:39:49;22.10;99.90
66728;DHT22;53641;44.274;19.890;2023-09-19T05:42:17;22.80;99.90
66728;DHT22;53641;44.274;19.890;2023-09-19T05:44:43;23.30;99.90
66728;DHT22;53641;44.274;19.890;2023-09-19T05:47:12;23.30;99.90
66728;DHT22;53641;44.274;19.890;2023-09-19T05:49:39;22.80;99.90
66728;DHT22;53641;44.274;19.890;2023-09-19T05:52:05;22.30;99.90
66728;DHT22;53641;44.274;19.890;2023-09-19T05:54:32;23.10;99.90
66728;DHT22;53641;44.274;19.890;2023-09-19T05:57:00;23.20;99.90
66728;DHT22;53641;44.274;19.890;2023-09-19T05:59:29;23.40;99.90
66728;DHT22;53641;44.274;19.890;2023-09-19T06:01:58;23.50;99.90
66728;DHT22;53641;44.274;19.890;2023-09-19T06:04:25;23.50;99.90
66728;DHT22;53641;44.274;19.890;2023-09-19T06:06:51;23.80;99.90
66728;DHT22;53641;44.274;19.890;2023-09-19T06:09:17;24.10;99.90
66728;DHT22;53641;44.274;19.890;2023-09-19T06:11:43;24.00;99.90
66728;DHT22;53641;44.274;19.890;2023-09-19T06:14:11;25.00;99.90
66728;DHT22;53641;44.274;19.890;2023-09-19T06:16:37;24.50;99.90
66728;DHT22;53641;44.274;19.890;2023-09-19T06:19:25;25.10;99.90
66728;DHT22;53641;44.274;19.890;2023-09-19T06:21:52;24.00;99.90
66728;DHT22;53641;44.274;19.890;2023-09-19T06:24:19;25.40;99.90
66728;DHT22;53641;44.274;19.890;2023-09-19T06:26:49;24.50;99.90
66728;DHT22;53641;44.274;19.890;2023-09-19T06:29:20;25.80;99.90
66728;DHT22;53641;44.274;19.890;2023-09-19T06:31:52;25.40;99.90
66728;DHT22;53641;44.274;19.890;2023-09-19T06:34:18;25.00;99.90
66728;DHT22;53641;44.274;19.890;2023-09-19T06:36:46;26.40;99.90
66728;DHT22;53641;44.274;19.890;2023-09-19T06:39:15;27.20;99.90
66728;DHT22;53641;44.274;19.890;2023-09-19T06:41:42;28.30;99.90
66728;DHT22;53641;44.274;19.890;2023-09-19T06:44:08;28.70;99.90
66728;DHT22;53641;44.274;19.890;2023-09-19T06:46:38;29.20;99.90
66728;DHT22;53641;44.274;19.890;2023-09-19T06:49:06;29.90;99.90
66728;DHT22;53641;44.274;19.890;2023-09-19T06:51:32;29.90;99.10
66728;DHT22;53641;44.274;19.890;2023-09-19T06:54:01;29.60;98.90
66728;DHT22;53641;44.274;19.890;2023-09-19T06:56:27;28.10;98.30
66728;DHT22;53641;44.274;19.890;2023-09-19T06:58:55;27.50;99.00
66728;DHT22;53641;44.274;19.890;2023-09-19T07:01:32;28.70;99.90
66728;DHT22;53641;44.274;19.890;2023-09-19T07:04:05;28.00;99.90
66728;DHT22;53641;44.274;19.890;2023-09-19T07:06:34;27.50;99.90
66728;DHT22;53641;44.274;19.890;2023-09-19T07:09:01;26.80;99.90
66728;DHT22;53641;44.274;19.890;2023-09-19T07:11:30;26.90;99.90
66728;DHT22;53641;44.274;19.890;2023-09-19T07:13:56;26.80;99.90
66728;DHT22;53641;44.274;19.890;2023-09-19T07:16:22;26.90;99.90
66728;DHT22;53641;44.274;19.890;2023-09-19T07:18:55;26.50;99.90
66728;DHT22;53641;44.274;19.890;2023-09-19T07:21:22;25.90;99.90
66728;DHT22;53641;44.274;19.890;2023-09-19T07:23:51;26.80;99.90
66728;DHT22;53641;44.274;19.890;2023-09-19T07:26:17;26.40;99.90
66728;DHT22;53641;44.274;19.890;2023-09-19T07:28:46;26.00;99.90
66728;DHT22;53641;44.274;19.890;2023-09-19T07:31:12;25.70;99.90
66728;DHT22;53641;44.274;19.890;2023-09-19T07:33:45;25.50;99.90
66728;DHT22;53641;44.274;19.890;2023-09-19T07:36:14;26.00;99.90
66728;DHT22;53641;44.274;19.890;2023-09-19T07:38:41;25.90;99.90
66728;DHT22;53641;44.274;19.890;2023-09-19T07:41:08;25.50;99.90
66728;DHT22;53641;44.274;19.890;2023-09-19T07:43:35;24.60;99.90
66728;DHT22;53641;44.274;19.890;2023-09-19T07:46:08;26.20;99.90
66728;DHT22;53641;44.274;19.890;2023-09-19T07:48:44;25.60;99.90
66728;DHT22;53641;44.274;19.890;2023-09-19T07:51:14;25.90;99.90
66728;DHT22;53641;44.274;19.890;2023-09-19T07:53:41;25.60;99.90
66728;DHT22;53641;44.274;19.890;2023-09-19T07:56:09;25.00;99.90
66728;DHT22;53641;44.274;19.890;2023-09-19T07:58:35;25.90;99.90
66728;DHT22;53641;44.274;19.890;2023-09-19T08:01:08;26.00;99.90
66728;DHT22;53641;44.274;19.890;2023-09-19T08:03:37;26.50;99.90
66728;DHT22;53641;44.274;19.890;2023-09-19T08:06:07;26.40;99.90
66728;DHT22;53641;44.274;19.890;2023-09-19T08:08:33;26.60;99.90
66728;DHT22;53641;44.274;19.890;2023-09-19T08:11:03;26.80;99.90
66728;DHT22;53641;44.274;19.890;2023-09-19T08:13:36;27.20;99.90
66728;DHT22;53641;44.274;19.890;2023-09-19T08:16:03;27.10;99.90
66728;DHT22;53641;44.274;19.890;2023-09-19T08:18:32;26.90;99.90
66728;DHT22;53641;44.274;19.890;2023-09-19T08:20:59;27.00;99.90
66728;DHT22;53641;44.274;19.890;2023-09-19T08:23:28;27.50;99.90
66728;DHT22;53641;44.274;19.890;2023-09-19T08:25:57;26.80;99.90
66728;DHT22;53641;44.274;19.890;2023-09-19T08:28:23;26.90;99.90
66728;DHT22;53641;44.274;19.890;2023-09-19T08:30:50;27.00;99.90
66728;DHT22;53641;44.274;19.890;2023-09-19T08:33:16;27.20;99.90
66728;DHT22;53641;44.274;19.890;2023-09-19T08:35:42;26.60;99.90
66728;DHT22;53641;44.274;19.890;2023-09-19T08:38:10;27.50;99.90
66728;DHT22;53641;44.274;19.890;2023-09-19T08:40:39;27.90;99.90
66728;DHT22;53641;44.274;19.890;2023-09-19T08:43:07;28.00;99.90
66728;DHT22;53641;44.274;19.890;2023-09-19T08:45:34;28.20;99.90
66728;DHT22;53641;44.274;19.890;2023-09-19T08:48:17;28.40;99.90
66728;DHT22;53641;44.274;19.890;2023-09-19T08:50:52;28.00;99.90
66728;DHT22;53641;44.274;19.890;2023-09-19T08:53:26;28.10;99.90
66728;DHT22;53641;44.274;19.890;2023-09-19T08:55:53;28.20;99.90
66728;DHT22;53641;44.274;19.890;2023-09-19T08:58:26;28.60;99.90
66728;DHT22;53641;44.274;19.890;2023-09-19T09:00:55;28.50;99.90
66728;DHT22;53641;44.274;19.890;2023-09-19T09:03:23;29.90;99.90
66728;DHT22;53641;44.274;19.890;2023-09-19T09:05:50;30.20;99.90
66728;DHT22;53641;44.274;19.890;2023-09-19T09:08:17;31.10;99.90
66728;DHT22;53641;44.274;19.890;2023-09-19T09:10:44;30.90;99.90
66728;DHT22;53641;44.274;19.890;2023-09-19T09:13:11;30.60;99.90
66728;DHT22;53641;44.274;19.890;2023-09-19T09:15:41;31.80;99.90
66728;DHT22;53641;44.274;19.890;2023-09-19T09:18:07;32.10;99.90
66728;DHT22;53641;44.274;19.890;2023-09-19T09:20:36;31.70;98.80
66728;DHT22;53641;44.274;19.890;2023-09-19T09:23:10;30.90;99.10
66728;DHT22;53641;44.274;19.890;2023-09-19T09:25:53;31.20;99.10
66728;DHT22;53641;44.274;19.890;2023-09-19T09:28:26;31.70;97.90
66728;DHT22;53641;44.274;19.890;2023-09-19T09:30:54;31.30;98.50
66728;DHT22;53641;44.274;19.890;2023-09-19T09:33:20;31.10;96.90
66728;DHT22;53641;44.274;19.890;2023-09-19T09:35:59;31.90;96.50
66728;DHT22;53641;44.274;19.890;2023-09-19T09:38:47;32.10;97.10
66728;DHT22;53641;44.274;19.890;2023-09-19T09:41:36;31.60;96.50
66728;DHT22;53641;44.274;19.890;2023-09-19T09:44:13;31.60;96.00
66728;DHT22;53641;44.274;19.890;2023-09-19T09:46:45;32.00;97.30
66728;DHT22;53641;44.274;19.890;2023-09-19T09:49:25;31.90;96.10
66728;DHT22;53641;44.274;19.890;2023-09-19T09:52:03;31.70;95.50
66728;DHT22;53641;44.274;19.890;2023-09-19T09:54:35;31.90;96.80
66728;DHT22;53641;44.274;19.890;2023-09-19T09:57:06;31.70;94.80
66728;DHT22;53641;44.274;19.890;2023-09-19T09:59:50;31.80;94.30
66728;DHT22;53641;44.274;19.890;2023-09-19T10:02:18;31.80;94.50
66728;DHT22;53641;44.274;19.890;2023-09-19T10:04:50;30.90;94.60
66728;DHT22;53641;44.274;19.890;2023-09-19T10:07:38;30.80;94.90
66728;DHT22;53641;44.274;19.890;2023-09-19T10:10:07;31.00;95.60
66728;DHT22;53641;44.274;19.890;2023-09-19T10:12:47;30.20;95.10
66728;DHT22;53641;44.274;19.890;2023-09-19T10:15:19;30.50;95.40
66728;DHT22;53641;44.274;19.890;2023-09-19T10:17:55;30.50;95.30
66728;DHT22;53641;44.274;19.890;2023-09-19T10:20:28;30.60;95.10
66728;DHT22;53641;44.274;19.890;2023-09-19T10:23:12;31.00;95.00
66728;DHT22;53641;44.274;19.890;2023-09-19T10:25:39;31.00;94.60
66728;DHT22;53641;44.274;19.890;2023-09-19T10:28:06;30.70;94.10
66728;DHT22;53641;44.274;19.890;2023-09-19T10:30:37;31.10;94.20
66728;DHT22;53641;44.274;19.890;2023-09-19T10:33:05;31.30;93.50
66728;DHT22;53641;44.274;19.890;2023-09-19T10:35:33;31.00;92.90
66728;DHT22;53641;44.274;19.890;2023-09-19T10:38:04;30.60;91.80
66728;DHT22;53641;44.274;19.890;2023-09-19T10:40:34;30.60;92.40
66728;DHT22;53641;44.274;19.890;2023-09-19T10:43:05;31.20;92.90
66728;DHT22;53641;44.274;19.890;2023-09-19T10:45:33;31.00;92.50
66728;DHT22;53641;44.274;19.890;2023-09-19T10:48:02;31.10;92.50
66728;DHT22;53641;44.274;19.890;2023-09-19T10:50:57;31.00;91.80
66728;DHT22;53641;44.274;19.890;2023-09-19T10:53:20;31.10;91.40
66728;DHT22;53641;44.274;19.890;2023-09-19T10:55:52;32.00;92.90
66728;DHT22;53641;44.274;19.890;2023-09-19T10:58:29;31.20;91.40
66728;DHT22;53641;44.274;19.890;2023-09-19T11:00:57;31.10;92.00
66728;DHT22;53641;44.274;19.890;2023-09-19T11:03:31;31.20;91.90
66728;DHT22;53641;44.274;19.890;2023-09-19T11:06:16;31.60;91.70
66728;DHT22;53641;44.274;19.890;2023-09-19T11:08:57;31.20;91.00
66728;DHT22;53641;44.274;19.890;2023-09-19T11:11:43;30.70;90.70
66728;DHT22;53641;44.274;19.890;2023-09-19T11:14:28;30.90;90.10
66728;DHT22;53641;44.274;19.890;2023-09-19T11:17:34;31.50;91.10
66728;DHT22;53641;44.274;19.890;2023-09-19T11:20:19;31.40;89.20
66728;DHT22;53641;44.274;19.890;2023-09-19T11:23:17;31.00;88.40
66728;DHT22;53641;44.274;19.890;2023-09-19T11:25:44;30.80;87.80
66728;DHT22;53641;44.274;19.890;2023-09-19T11:28:37;30.90;88.60
66728;DHT22;53641;44.274;19.890;2023-09-19T11:31:46;31.40;87.30
66728;DHT22;53641;44.274;19.890;2023-09-19T11:34:39;30.40;85.90
66728;DHT22;53641;44.274;19.890;2023-09-19T11:40:11;31.40;84.50
66728;DHT22;53641;44.274;19.890;2023-09-19T11:42:49;31.50;85.60
66728;DHT22;53641;44.274;19.890;2023-09-19T11:46:04;32.20;84.90
66728;DHT22;53641;44.274;19.890;2023-09-19T11:48:26;31.30;85.70
66728;DHT22;53641;44.274;19.890;2023-09-19T11:50:53;31.00;84.40
66728;DHT22;53641;44.274;19.890;2023-09-19T11:53:20;29.70;84.50
66728;DHT22;53641;44.274;19.890;2023-09-19T11:55:52;29.80;84.50
66728;DHT22;53641;44.274;19.890;2023-09-19T11:58:26;30.00;84.90
66728;DHT22;53641;44.274;19.890;2023-09-19T12:00:55;30.10;86.30
66728;DHT22;53641;44.274;19.890;2023-09-19T12:03:29;29.60;87.40
66728;DHT22;53641;44.274;19.890;2023-09-19T12:05:58;30.00;88.20
66728;DHT22;53641;44.274;19.890;2023-09-19T12:08:24;30.00;89.60
66728;DHT22;53641;44.274;19.890;2023-09-19T12:10:53;29.80;90.80
66728;DHT22;53641;44.274;19.890;2023-09-19T12:13:20;28.60;89.80
66728;DHT22;53641;44.274;19.890;2023-09-19T12:15:47;27.70;89.50
66728;DHT22;53641;44.274;19.890;2023-09-19T12:18:32;26.90;89.90
66728;DHT22;53641;44.274;19.890;2023-09-19T12:20:59;27.50;90.90
66728;DHT22;53641;44.274;19.890;2023-09-19T12:23:30;27.10;92.00
66728;DHT22;53641;44.274;19.890;2023-09-19T12:25:56;27.20;92.20
66728;DHT22;53641;44.274;19.890;2023-09-19T12:28:27;27.50;91.40
66728;DHT22;53641;44.274;19.890;2023-09-19T12:31:06;26.90;90.80
66728;DHT22;53641;44.274;19.890;2023-09-19T12:33:33;28.30;90.60
66728;DHT22;53641;44.274;19.890;2023-09-19T12:35:59;28.80;90.10
66728;DHT22;53641;44.274;19.890;2023-09-19T12:38:26;28.30;90.10
66728;DHT22;53641;44.274;19.890;2023-09-19T12:41:01;28.70;88.80
66728;DHT22;53641;44.274;19.890;2023-09-19T12:43:32;29.10;88.60
66728;DHT22;53641;44.274;19.890;2023-09-19T12:46:01;27.20;88.30
66728;DHT22;53641;44.274;19.890;2023-09-19T12:48:30;27.30;87.50
66728;DHT22;53641;44.274;19.890;2023-09-19T12:51:01;27.90;88.30
66728;DHT22;53641;44.274;19.890;2023-09-19T12:53:29;29.00;89.60
66728;DHT22;53641;44.274;19.890;2023-09-19T12:55:59;28.40;89.10
66728;DHT22;53641;44.274;19.890;2023-09-19T12:58:25;27.80;88.40
66728;DHT22;53641;44.274;19.890;2023-09-19T13:00:51;28.10;90.00
66728;DHT22;53641;44.274;19.890;2023-09-19T13:03:27;28.40;90.30
66728;DHT22;53641;44.274;19.890;2023-09-19T13:05:59;28.30;90.00
66728;DHT22;53641;44.274;19.890;2023-09-19T13:08:28;28.70;89.10
66728;DHT22;53641;44.274;19.890;2023-09-19T13:11:05;28.60;89.60
66728;DHT22;53641;44.274;19.890;2023-09-19T13:13:45;29.00;88.70
66728;DHT22;53641;44.274;19.890;2023-09-19T13:16:15;28.80;88.10
66728;DHT22;53641;44.274;19.890;2023-09-19T13:18:49;28.90;88.40
66728;DHT22;53641;44.274;19.890;2023-09-19T13:21:32;28.80;88.40
66728;DHT22;53641;44.274;19.890;2023-09-19T13:24:22;28.80;89.10
66728;DHT22;53641;44.274;19.890;2023-09-19T13:26:48;28.70;87.50
66728;DHT22;53641;44.274;19.890;2023-09-19T13:29:15;28.80;88.20
66728;DHT22;53641;44.274;19.890;2023-09-19T13:31:48;29.60;88.50
66728;DHT22;53641;44.274;19.890;2023-09-19T13:34:17;28.60;87.50
66728;DHT22;53641;44.274;19.890;2023-09-19T13:36:44;28.10;87.60
66728;DHT22;53641;44.274;19.890;2023-09-19T13:39:10;28.20;87.90
66728;DHT22;53641;44.274;19.890;2023-09-19T13:41:39;28.50;89.60
66728;DHT22;53641;44.274;19.890;2023-09-19T13:44:05;28.40;90.10
66728;DHT22;53641;44.274;19.890;2023-09-19T13:46:31;27.50;90.10
66728;DHT22;53641;44.274;19.890;2023-09-19T13:49:01;27.70;90.00
66728;DHT22;53641;44.274;19.890;2023-09-19T13:51:29;28.60;90.70
66728;DHT22;53641;44.274;19.890;2023-09-19T13:53:59;27.60;90.90
66728;DHT22;53641;44.274;19.890;2023-09-19T13:56:27;27.70;92.00
66728;DHT22;53641;44.274;19.890;2023-09-19T13:58:54;27.20;95.60
66728;DHT22;53641;44.274;19.890;2023-09-19T14:01:20;26.70;97.80
66728;DHT22;53641;44.274;19.890;2023-09-19T14:03:49;25.90;97.40
66728;DHT22;53641;44.274;19.890;2023-09-19T14:06:16;25.00;99.30
66728;DHT22;53641;44.274;19.890;2023-09-19T14:08:44;24.80;98.60
66728;DHT22;53641;44.274;19.890;2023-09-19T14:11:15;24.00;98.90
66728;DHT22;53641;44.274;19.890;2023-09-19T14:13:42;24.80;99.40
66728;DHT22;53641;44.274;19.890;2023-09-19T14:16:12;23.40;99.90
66728;DHT22;53641;44.274;19.890;2023-09-19T14:18:38;23.50;99.90
66728;DHT22;53641;44.274;19.890;2023-09-19T14:21:05;23.70;99.90
66728;DHT22;53641;44.274;19.890;2023-09-19T14:23:38;24.20;99.90
66728;DHT22;53641;44.274;19.890;2023-09-19T14:26:04;23.60;99.90
66728;DHT22;53641;44.274;19.890;2023-09-19T14:28:33;23.40;99.90
66728;DHT22;53641;44.274;19.890;2023-09-19T14:31:07;23.80;99.90
66728;DHT22;53641;44.274;19.890;2023-09-19T14:33:34;22.60;99.90
66728;DHT22;53641;44.274;19.890;2023-09-19T14:36:06;23.20;99.90
66728;DHT22;53641;44.274;19.890;2023-09-19T14:38:34;24.90;99.90
66728;DHT22;53641;44.274;19.890;2023-09-19T14:41:01;24.70;99.90
66728;DHT22;53641;44.274;19.890;2023-09-19T14:43:31;24.50;99.90
66728;DHT22;53641;44.274;19.890;2023-09-19T14:46:01;25.40;99.90
66728;DHT22;53641;44.274;19.890;2023-09-19T14:48:27;25.20;99.90
66728;DHT22;53641;44.274;19.890;2023-09-19T14:50:53;26.00;99.90
66728;DHT22;53641;44.274;19.890;2023-09-19T14:53:20;24.70;99.90
66728;DHT22;53641;44.274;19.890;2023-09-19T14:55:46;25.20;99.90
66728;DHT22;53641;44.274;19.890;2023-09-19T14:58:14;25.80;99.90
66728;DHT22;53641;44.274;19.890;2023-09-19T15:00:39;24.70;99.90
66728;DHT22;53641;44.274;19.890;2023-09-19T15:03:11;24.20;99.90
66728;DHT22;53641;44.274;19.890;2023-09-19T15:05:37;24.90;99.90
66728;DHT22;53641;44.274;19.890;2023-09-19T15:08:03;24.00;99.90
66728;DHT22;53641;44.274;19.890;2023-09-19T15:10:29;24.00;99.90
66728;DHT22;53641;44.274;19.890;2023-09-19T15:12:55;25.00;99.90
66728;DHT22;53641;44.274;19.890;2023-09-19T15:15:21;24.50;99.90
66728;DHT22;53641;44.274;19.890;2023-09-19T15:17:47;25.00;99.90
66728;DHT22;53641;44.274;19.890;2023-09-19T15:20:13;24.10;99.90
66728;DHT22;53641;44.274;19.890;2023-09-19T15:22:42;24.40;99.90
66728;DHT22;53641;44.274;19.890;2023-09-19T15:25:08;24.60;99.90
66728;DHT22;53641;44.274;19.890;2023-09-19T15:27:34;24.60;99.90
66728;DHT22;53641;44.274;19.890;2023-09-19T15:30:06;25.40;99.90
66728;DHT22;53641;44.274;19.890;2023-09-19T15:32:32;24.90;99.90
66728;DHT22;53641;44.274;19.890;2023-09-19T15:34:58;23.90;99.90
66728;DHT22;53641;44.274;19.890;2023-09-19T15:37:26;23.90;99.90